createdAt,value
2024-01-03T00:01:30.126Z,98698.84
2024-01-03T00:03:58.143Z,98703.47
2024-01-03T00:06:32.744Z,98707.91
2024-01-03T00:08:59.847Z,98703.44
2024-01-03T00:11:29.770Z,98683.28
2024-01-03T00:14:34.674Z,98710.44
2024-01-03T00:17:04.802Z,98699.91
2024-01-03T00:19:32.037Z,98695.31
2024-01-03T00:22:00.139Z,98704.06
2024-01-03T00:24:27.389Z,98696.31
2024-01-03T00:26:54.153Z,98706.94
2024-01-03T00:30:22.595Z,68597.84
2024-01-03T00:33:23.083Z,98706.94
2024-01-03T00:36:49.015Z,68597.84
2024-01-03T00:40:32.509Z,68597.84
2024-01-03T00:43:57.902Z,68597.84
2024-01-03T00:47:24.291Z,68597.84
2024-01-03T00:50:50.544Z,68597.84
2024-01-03T00:53:55.635Z,98706.94
2024-01-03T00:56:22.439Z,98716.13
2024-01-03T00:59:48.004Z,68597.84
2024-01-03T01:03:13.483Z,68597.84
2024-01-03T01:06:42.348Z,68597.84
2024-01-03T01:10:08.620Z,68597.84
2024-01-03T01:13:33.979Z,68597.84
2024-01-03T01:16:59.273Z,68597.84
2024-01-03T01:20:24.634Z,68597.84
2024-01-03T01:23:50.070Z,68597.84
2024-01-03T01:27:15.349Z,68597.84
2024-01-03T01:30:41.195Z,68597.84
2024-01-03T01:34:06.784Z,68597.84
2024-01-03T01:37:32.023Z,68597.84
2024-01-03T01:40:57.404Z,68597.84
2024-01-03T01:44:23.046Z,68597.84
2024-01-03T01:47:48.536Z,68597.84
2024-01-03T01:51:13.997Z,68597.84
2024-01-03T01:54:40.282Z,68597.84
2024-01-03T01:58:06.627Z,68597.84
2024-01-03T02:01:32.453Z,68597.84
2024-01-03T02:04:58.224Z,68597.84
2024-01-03T02:08:24.207Z,68597.84
2024-01-03T02:11:49.724Z,68597.84
2024-01-03T02:15:15.255Z,68597.84
2024-01-03T02:18:09.397Z,98716.13
2024-01-03T02:21:28.917Z,68597.84
2024-01-03T02:24:54.378Z,68597.84
2024-01-03T02:28:19.743Z,68597.84
2024-01-03T02:31:45.067Z,68597.84
2024-01-03T02:35:10.431Z,68597.84
2024-01-03T02:38:35.927Z,68597.84
2024-01-03T02:42:01.250Z,68597.84
2024-01-03T02:45:26.577Z,68597.84
2024-01-03T02:48:52.029Z,68597.84
2024-01-03T02:52:18.435Z,68597.84
2024-01-03T02:55:43.697Z,68597.84
2024-01-03T02:59:09.031Z,68597.84
2024-01-03T03:02:34.332Z,68597.84
2024-01-03T03:05:59.753Z,68597.84
2024-01-03T03:09:25.095Z,68597.84
2024-01-03T03:12:50.428Z,68597.84
2024-01-03T03:16:15.696Z,68597.84
2024-01-03T03:19:41.209Z,68597.84
2024-01-03T03:23:06.621Z,68597.84
2024-01-03T03:25:57.893Z,98716.13
2024-01-03T03:29:23.353Z,68597.84
2024-01-03T03:32:33.652Z,98716.13
2024-01-03T03:35:59.076Z,68597.84
2024-01-03T03:39:24.512Z,68597.84
2024-01-03T03:42:49.812Z,68597.84
2024-01-03T03:46:16.983Z,68597.84
2024-01-03T03:49:36.060Z,68597.84
2024-01-03T03:53:01.384Z,68597.84
2024-01-03T03:56:26.987Z,68597.84
2024-01-03T03:59:52.652Z,68597.84
2024-01-03T04:03:17.296Z,68597.84
2024-01-03T04:06:44.132Z,68597.84
2024-01-03T04:10:09.760Z,68597.84
2024-01-03T04:13:36.535Z,68597.84
2024-01-03T04:17:06.037Z,68597.84
2024-01-03T04:19:52.872Z,98716.13
2024-01-03T04:23:18.948Z,68597.84
2024-01-03T04:26:44.827Z,68597.84
2024-01-03T04:30:10.382Z,68597.84
2024-01-03T04:33:36.074Z,68597.84
2024-01-03T04:37:01.401Z,68597.84
2024-01-03T04:40:26.712Z,68597.84
2024-01-03T04:43:52.066Z,68597.84
2024-01-03T04:47:17.341Z,68597.84
2024-01-03T04:50:42.695Z,68597.84
2024-01-03T04:54:07.016Z,68597.84
2024-01-03T04:56:34.799Z,98713.81
2024-01-03T04:59:56.620Z,68597.84
2024-01-03T05:03:22.225Z,68597.84
2024-01-03T05:06:48.182Z,68597.84
2024-01-03T05:10:13.541Z,68597.84
2024-01-03T05:13:38.865Z,68597.84
2024-01-03T05:17:04.431Z,68597.84
2024-01-03T05:20:29.787Z,68597.84
2024-01-03T05:23:55.471Z,68597.84
2024-01-03T05:27:22.196Z,68597.84
2024-01-03T05:30:47.770Z,68597.84
2024-01-03T05:34:13.343Z,68597.84
2024-01-03T05:37:38.826Z,68597.84
2024-01-03T05:44:20.823Z,68597.84
2024-01-03T05:47:46.268Z,68597.84
2024-01-03T05:51:11.697Z,68597.84
2024-01-03T05:54:37.145Z,68597.84
2024-01-03T05:58:02.497Z,68597.84
2024-01-03T06:01:27.723Z,68597.84
2024-01-03T06:04:55.636Z,68597.84
2024-01-03T06:08:22.420Z,68597.84
2024-01-03T06:11:47.893Z,68597.84
2024-01-03T06:15:13.954Z,68597.84
2024-01-03T06:18:39.814Z,68597.84
2024-01-03T06:22:09.500Z,68597.84
2024-01-03T06:25:34.825Z,68597.84
2024-01-03T06:28:59.426Z,68597.84
2024-01-03T06:32:25.313Z,68597.84
2024-01-03T06:35:50.780Z,68597.84
2024-01-03T06:42:26.869Z,68597.84
2024-01-03T06:45:52.495Z,68597.84
2024-01-03T06:49:19.258Z,68597.84
2024-01-03T06:52:44.687Z,68597.84
2024-01-03T06:56:10.884Z,68597.84
2024-01-03T06:59:37.230Z,68597.84
2024-01-03T07:03:03.006Z,68597.84
2024-01-03T07:06:28.409Z,68597.84
2024-01-03T07:09:53.871Z,68597.84
2024-01-03T07:13:19.847Z,68597.84
2024-01-03T07:16:46.563Z,68597.84
2024-01-03T07:20:13.582Z,68597.84
2024-01-03T07:23:38.959Z,68597.84
2024-01-03T07:27:04.756Z,68597.84
2024-01-03T07:30:30.200Z,68597.84
2024-01-03T07:33:55.887Z,68597.84
2024-01-03T07:37:21.799Z,68597.84
2024-01-03T07:40:47.146Z,68597.84
2024-01-03T07:44:12.730Z,68597.84
2024-01-03T07:47:38.176Z,68597.84
2024-01-03T07:51:04.097Z,68597.84
2024-01-03T07:54:29.379Z,68597.84
2024-01-03T07:57:55.550Z,68597.84
2024-01-03T08:01:21.629Z,68597.84
2024-01-03T08:04:47.235Z,68597.84
2024-01-03T08:08:13.318Z,68597.84
2024-01-03T08:11:39.053Z,68597.84
2024-01-03T08:15:04.726Z,68597.84
2024-01-03T08:18:30.157Z,68597.84
2024-01-03T08:21:55.779Z,68597.84
2024-01-03T08:25:21.216Z,68597.84
2024-01-03T08:28:46.931Z,68597.84
2024-01-03T08:32:15.828Z,68597.84
2024-01-03T08:35:43.941Z,68597.84
2024-01-03T08:39:09.451Z,68597.84
2024-01-03T08:42:35.917Z,68597.84
2024-01-03T08:46:04.646Z,68597.84
2024-01-03T08:49:30.357Z,68597.84
2024-01-03T08:52:56.593Z,68597.84
2024-01-03T08:56:21.968Z,68597.84
2024-01-03T08:59:47.598Z,68597.84
2024-01-03T09:03:12.877Z,68597.84
2024-01-03T09:06:39.772Z,68597.84
2024-01-03T09:10:05.275Z,68597.84
2024-01-03T09:13:32.380Z,68597.84
2024-01-03T09:16:57.736Z,68597.84
2024-01-03T09:20:23.012Z,68597.84
2024-01-03T09:23:51.807Z,68597.84
2024-01-03T09:27:19.550Z,68597.84
2024-01-03T09:30:48.124Z,68597.84
2024-01-03T09:34:16.455Z,68597.84
2024-01-03T09:37:41.943Z,68597.84
2024-01-03T09:41:13.381Z,68597.84
2024-01-03T09:44:42.180Z,68597.84
2024-01-03T09:48:08.417Z,68597.84
2024-01-03T09:51:34.253Z,68597.84
2024-01-03T09:55:00.512Z,68597.84
2024-01-03T09:58:28.274Z,68597.84
2024-01-03T10:01:54.294Z,68597.84
2024-01-03T10:05:20.626Z,68597.84
2024-01-03T10:08:59.815Z,68597.84
2024-01-03T10:12:26.046Z,68597.84
2024-01-03T10:15:51.524Z,68597.84
2024-01-03T10:19:19.403Z,68597.84
2024-01-03T10:23:04.921Z,68597.84
2024-01-03T10:26:30.822Z,68597.84
2024-01-03T10:30:15.751Z,68597.84
2024-01-03T10:33:06.126Z,98713.81
2024-01-03T10:36:37.107Z,68597.84
2024-01-03T10:40:03.531Z,68597.84
2024-01-03T10:43:28.944Z,68597.84
2024-01-03T10:46:57.058Z,68597.84
2024-01-03T10:50:22.477Z,68597.84
2024-01-03T10:53:51.793Z,68597.84
2024-01-03T10:57:18.987Z,68597.84
2024-01-03T11:00:54.500Z,68597.84
2024-01-03T11:04:40.003Z,68597.84
2024-01-03T11:08:09.580Z,68597.84
2024-01-03T11:11:51.237Z,68597.84
2024-01-03T11:15:37.564Z,68597.84
2024-01-03T11:19:09.781Z,68597.84
2024-01-03T11:22:53.992Z,68597.84
2024-01-03T11:26:54.133Z,68597.84
2024-01-03T11:30:44.075Z,68597.84
2024-01-03T11:34:41.598Z,68597.84
2024-01-03T11:38:43.817Z,68597.84
2024-01-03T11:42:24.424Z,68597.84
2024-01-03T11:46:09.938Z,68597.84
2024-01-03T11:49:36.154Z,68597.84
2024-01-03T11:53:02.337Z,68597.84
2024-01-03T11:56:28.376Z,68597.84
2024-01-03T12:00:03.582Z,68597.84
2024-01-03T12:03:32.539Z,68597.84
2024-01-03T12:06:58.590Z,68597.84
2024-01-03T12:10:25.179Z,68597.84
2024-01-03T12:13:52.408Z,68597.84
2024-01-03T12:17:24.142Z,68597.84
2024-01-03T12:20:49.634Z,68597.84
2024-01-03T12:24:14.921Z,68597.84
2024-01-03T12:27:40.202Z,68597.84
2024-01-03T12:31:18.288Z,68597.84
2024-01-03T12:34:45.274Z,68597.84
2024-01-03T12:38:10.975Z,68597.84
2024-01-03T12:41:36.522Z,68597.84
2024-01-03T12:45:02.218Z,68597.84
2024-01-03T12:48:27.834Z,68597.84
2024-01-03T12:51:53.711Z,68597.84
2024-01-03T12:55:19.519Z,68597.84
2024-01-03T12:58:45.344Z,68597.84
2024-01-03T13:02:10.626Z,68597.84
2024-01-03T13:05:36.056Z,68597.84
2024-01-03T13:09:05.472Z,68597.84
2024-01-03T13:12:31.065Z,68597.84
2024-01-03T13:15:56.323Z,68597.84
2024-01-03T13:19:22.024Z,68597.84
2024-01-03T13:22:47.424Z,68597.84
2024-01-03T13:26:13.181Z,68597.84
2024-01-03T13:29:38.637Z,68597.84
2024-01-03T13:33:06.771Z,68597.84
2024-01-03T13:36:33.673Z,68597.84
2024-01-03T13:39:59.111Z,68597.84
2024-01-03T13:43:26.178Z,68597.84
2024-01-03T13:46:55.529Z,68597.84
2024-01-03T13:50:21.053Z,68597.84
2024-01-03T13:53:47.145Z,68597.84
2024-01-03T13:57:12.478Z,68597.84
2024-01-03T14:00:38.288Z,68597.84
2024-01-03T14:04:04.137Z,68597.84
2024-01-03T14:07:29.748Z,68597.84
2024-01-03T14:10:55.163Z,68597.84
2024-01-03T14:14:21.400Z,68597.84
2024-01-03T14:17:47.504Z,68597.84
2024-01-03T14:21:12.944Z,68597.84
2024-01-03T14:24:38.815Z,68597.84
2024-01-03T14:28:04.148Z,68597.84
2024-01-03T14:31:29.445Z,68597.84
2024-01-03T14:34:54.782Z,68597.84
2024-01-03T14:38:20.058Z,68597.84
2024-01-03T14:41:50.547Z,68597.84
2024-01-03T14:45:17.603Z,68597.84
2024-01-03T14:48:48.411Z,68597.84
2024-01-03T14:52:13.679Z,68597.84
2024-01-03T14:55:39.193Z,68597.84
2024-01-03T14:59:04.027Z,68597.84
2024-01-03T15:02:31.351Z,68597.84
2024-01-03T15:05:56.849Z,68597.84
2024-01-03T15:09:22.324Z,68597.84
2024-01-03T15:12:47.637Z,68597.84
2024-01-03T15:16:13.065Z,68597.84
2024-01-03T15:19:38.383Z,68597.84
2024-01-03T15:23:08.933Z,68597.84
2024-01-03T15:26:35.093Z,68597.84
2024-01-03T15:30:00.503Z,68597.84
2024-01-03T15:33:28.809Z,68597.84
2024-01-03T15:36:54.428Z,68597.84
2024-01-03T15:40:20.913Z,68597.84
2024-01-03T15:43:47.949Z,68597.84
2024-01-03T15:47:16.178Z,68597.84
2024-01-03T15:50:02.801Z,98713.81
2024-01-03T15:53:28.236Z,68597.84
2024-01-03T15:56:53.929Z,68597.84
2024-01-03T16:00:21.848Z,68597.84
2024-01-03T16:03:48.830Z,68597.84
2024-01-03T16:07:14.251Z,68597.84
2024-01-03T16:10:40.132Z,68597.84
2024-01-03T16:13:23.049Z,98713.81
2024-01-03T16:16:48.342Z,68597.84
2024-01-03T16:20:15.789Z,68597.84
2024-01-03T16:23:43.300Z,68597.84
2024-01-03T16:27:09.231Z,68597.84
2024-01-03T16:30:35.314Z,68597.84
2024-01-03T16:34:01.509Z,68597.84
2024-01-03T16:37:27.841Z,68597.84
2024-01-03T16:40:53.203Z,68597.84
2024-01-03T16:44:18.819Z,68597.84
2024-01-03T16:47:44.780Z,68597.84
2024-01-03T16:51:12.180Z,68597.84
2024-01-03T16:54:16.001Z,98713.81
2024-01-03T16:57:42.339Z,68597.84
2024-01-03T17:00:24.310Z,98713.81
2024-01-03T17:03:49.642Z,68597.84
2024-01-03T17:07:14.990Z,68597.84
2024-01-03T17:10:40.261Z,68597.84
2024-01-03T17:14:06.586Z,68597.84
2024-01-03T17:17:32.778Z,68597.84
2024-01-03T17:20:58.271Z,68597.84
2024-01-03T17:24:23.774Z,68597.84
2024-01-03T17:27:49.575Z,68597.84
2024-01-03T17:31:16.417Z,68597.84
2024-01-03T17:34:42.299Z,68597.84
2024-01-03T17:38:07.852Z,68597.84
2024-01-03T17:41:35.526Z,68597.84
2024-01-03T17:48:23.471Z,68597.84
2024-01-03T17:51:49.299Z,68597.84
2024-01-03T17:55:14.699Z,68597.84
2024-01-03T17:58:40.908Z,68597.84
2024-01-03T18:02:06.141Z,68597.84
2024-01-03T18:05:06.372Z,98713.81
2024-01-03T18:08:32.383Z,68597.84
2024-01-03T18:11:04.571Z,98713.81
2024-01-03T18:13:35.073Z,98713.81
2024-01-03T18:17:07.032Z,68597.84
2024-01-03T18:20:32.457Z,68597.84
2024-01-03T18:23:19.921Z,98713.81
2024-01-03T18:26:15.582Z,98713.81
2024-01-03T18:29:36.645Z,68597.84
2024-01-03T18:33:02.210Z,68597.84
2024-01-03T18:36:27.708Z,68597.84
2024-01-03T18:39:52.909Z,68597.84
2024-01-03T18:43:18.182Z,68597.84
2024-01-03T18:46:43.667Z,68597.84
2024-01-03T18:50:10.539Z,68597.84
2024-01-03T18:53:35.999Z,68597.84
2024-01-03T18:57:01.270Z,68597.84
2024-01-03T19:00:26.792Z,68597.84
2024-01-03T19:07:16.822Z,68597.84
2024-01-03T19:10:42.128Z,68597.84
2024-01-03T19:14:07.513Z,68597.84
2024-01-03T19:17:33.484Z,68597.84
2024-01-03T19:20:58.943Z,68597.84
2024-01-03T19:23:46.886Z,98713.81
2024-01-03T19:27:12.191Z,68597.84
2024-01-03T19:29:41.148Z,98713.81
2024-01-03T19:32:07.822Z,98873.34
2024-01-03T19:35:06.666Z,98873.34
2024-01-03T19:37:35.351Z,98893.78
2024-01-03T19:40:53.145Z,76742.16
2024-01-03T19:43:22.198Z,98897.69
2024-01-03T19:45:49.578Z,98891.38
2024-01-03T19:48:52.339Z,98891.38
2024-01-03T19:51:27.989Z,98891.38
2024-01-03T19:53:56.601Z,98891.38
2024-01-03T19:57:21.842Z,68597.84
2024-01-03T20:00:47.543Z,68597.84
2024-01-03T20:03:14.749Z,98928.00
2024-01-03T20:06:40.288Z,68597.84
2024-01-03T20:10:05.225Z,68597.84
2024-01-03T20:13:00.662Z,76698.84
2024-01-03T20:15:50.369Z,98928.00
2024-01-03T20:19:15.857Z,68597.84
2024-01-03T20:22:16.850Z,98928.00
2024-01-03T20:24:56.508Z,98928.00
2024-01-03T20:27:24.172Z,98957.66
2024-01-03T20:29:50.901Z,98964.38
2024-01-03T20:32:19.453Z,98951.44
2024-01-03T20:35:42.193Z,68597.84
2024-01-03T20:38:09.050Z,98974.06
2024-01-03T20:41:07.591Z,98974.06
2024-01-03T20:43:37.023Z,98974.06
2024-01-03T20:46:06.882Z,98978.97
2024-01-03T20:49:06.067Z,68597.84
2024-01-03T20:52:16.486Z,98978.97
2024-01-03T20:54:43.568Z,98981.81
2024-01-03T20:57:21.753Z,98981.81
2024-01-03T21:00:47.053Z,68597.84
2024-01-03T21:04:13.061Z,68597.84
2024-01-03T21:10:55.442Z,68597.84
2024-01-03T21:14:20.843Z,68597.84
2024-01-03T21:17:46.456Z,68597.84
2024-01-03T21:21:11.977Z,68597.84
2024-01-03T21:24:07.919Z,98981.81
2024-01-03T21:27:45.838Z,68597.84
2024-01-03T21:30:16.037Z,98981.81
2024-01-03T21:32:56.439Z,98981.81
2024-01-03T21:35:23.435Z,99028.59
2024-01-03T21:37:50.243Z,99028.59
2024-01-03T21:40:18.978Z,99030.03
2024-01-03T21:42:47.833Z,99046.69
2024-01-03T21:45:15.016Z,99044.50
2024-01-03T21:47:42.271Z,99035.94
2024-01-03T21:50:54.972Z,99035.94
2024-01-03T21:53:21.765Z,99059.00
2024-01-03T21:55:48.492Z,99053.59
2024-01-03T21:58:15.281Z,99051.19
2024-01-03T22:00:42.115Z,99048.19
2024-01-03T22:03:09.480Z,99057.19
2024-01-03T22:05:36.544Z,99055.31
2024-01-03T22:11:19.002Z,99071.56
2024-01-03T22:13:46.616Z,99069.06
2024-01-03T22:16:13.324Z,99073.41
2024-01-03T22:19:14.234Z,99073.41
2024-01-03T22:21:41.125Z,99095.00
2024-01-03T22:25:06.894Z,68597.84
2024-01-03T22:28:32.124Z,68597.84
2024-01-03T22:31:57.428Z,68597.84
2024-01-03T22:34:25.993Z,99095.00
2024-01-03T22:37:28.971Z,99095.00
2024-01-03T22:40:01.683Z,99095.00
2024-01-03T22:43:26.938Z,68597.84
2024-01-03T22:45:53.951Z,99143.19
2024-01-03T22:48:20.873Z,99145.09
2024-01-03T22:50:50.722Z,99152.34
2024-01-03T22:53:17.459Z,99147.38
2024-01-03T22:55:44.278Z,99156.06
2024-01-03T22:58:28.047Z,99156.06
2024-01-03T23:00:54.817Z,99175.44
2024-01-03T23:03:21.774Z,99184.34
2024-01-03T23:05:53.808Z,99184.34
2024-01-03T23:08:20.696Z,99184.34
2024-01-03T23:10:47.577Z,99195.13
2024-01-03T23:13:15.501Z,99214.59
2024-01-03T23:15:42.395Z,99207.28
2024-01-03T23:18:09.667Z,99217.72
2024-01-03T23:20:36.635Z,99219.94
2024-01-03T23:23:09.609Z,99238.44
2024-01-03T23:25:38.255Z,99247.97
2024-01-03T23:28:05.219Z,99239.81
2024-01-03T23:30:32.295Z,99243.53
2024-01-03T23:33:02.177Z,99254.47
2024-01-03T23:35:29.181Z,99254.06
2024-01-03T23:37:56.604Z,99266.72
2024-01-03T23:40:23.425Z,99268.00
2024-01-03T23:42:50.142Z,99275.53
2024-01-03T23:45:16.910Z,99278.16
2024-01-03T23:47:43.900Z,99281.47
2024-01-03T23:50:11.283Z,99281.72
2024-01-03T23:52:38.091Z,99271.25
2024-01-03T23:55:05.686Z,99278.19
2024-01-03T23:57:32.482Z,99275.94
2024-01-03T23:59:59.307Z,99278.78
